Time;durP1;ratioP1;P1;durP2;ratioP2;P2;SDS_P1;SDS_P2;PMS_P1;PMS_P2;Temp;Humidity;BMP_temperature;BMP_pressure;BME280_temperature;BME280_humidity;BME280_pressure;Samples;Min_cycle;Max_cycle;Signal;HPM_P1;HPM_P2
2023/10/07 00:02:51;;;;;;;14.60;6.20;;;14.40;61.40;;;;;;4952897;28;20533;-74
2023/10/07 00:05:20;;;;;;;11.93;6.13;;;14.40;60.40;;;;;;4956483;28;20429;-74
2023/10/07 00:07:46;;;;;;;16.20;6.93;;;14.40;60.60;;;;;;4939953;29;20900;-74
2023/10/07 00:10:16;;;;;;;12.10;6.28;;;14.40;60.80;;;;;;4956941;28;20418;-74
2023/10/07 00:12:42;;;;;;;17.58;7.10;;;14.40;61.10;;;;;;4956735;28;20394;-75
2023/10/07 00:15:11;;;;;;;11.98;6.18;;;14.40;61.70;;;;;;4939871;28;20408;-75
2023/10/07 00:17:42;;;;;;;14.50;6.88;;;14.40;62.00;;;;;;4957547;29;20397;-74
2023/10/07 00:20:12;;;;;;;12.73;6.13;;;14.40;62.40;;;;;;4957283;28;20398;-75
2023/10/07 00:22:41;;;;;;;11.85;6.28;;;14.40;62.10;;;;;;4939719;29;20405;-75
2023/10/07 00:25:07;;;;;;;13.40;6.40;;;14.40;62.20;;;;;;4958738;28;20857;-75
2023/10/07 00:27:42;;;;;;;13.80;6.47;;;14.40;63.20;;;;;;4947862;29;20474;-74
2023/10/07 00:30:15;;;;;;;13.45;6.55;;;14.40;63.00;;;;;;4959501;29;20401;-74
2023/10/07 00:32:41;;;;;;;17.95;7.05;;;14.40;62.60;;;;;;4960444;28;20390;-74
2023/10/07 00:35:07;;;;;;;18.27;6.80;;;14.40;62.90;;;;;;4959301;28;20533;-76
2023/10/07 00:37:43;;;;;;;17.10;6.80;;;14.40;63.30;;;;;;4959153;28;20409;-75
2023/10/07 00:40:31;;;;;;;17.20;6.60;;;14.30;64.30;;;;;;4941616;29;20442;-74
2023/10/07 00:42:58;;;;;;;14.05;6.60;;;14.40;63.80;;;;;;4956374;28;20393;-75
2023/10/07 00:45:26;;;;;;;13.07;6.72;;;14.40;63.90;;;;;;4958776;28;20396;-75
2023/10/07 00:47:53;;;;;;;14.45;6.90;;;14.40;64.20;;;;;;4959649;28;20405;-75
2023/10/07 00:50:24;;;;;;;13.65;6.75;;;14.30;65.50;;;;;;4960258;28;20397;-75
2023/10/07 00:52:56;;;;;;;14.75;6.90;;;14.30;66.60;;;;;;4961311;28;20753;-75
2023/10/07 00:55:29;;;;;;;19.30;6.30;;;14.30;66.70;;;;;;4960875;28;20846;-75
2023/10/07 00:58:16;;;;;;;15.27;6.93;;;14.50;64.00;;;;;;4943410;29;20401;-75
2023/10/07 01:00:46;;;;;;;17.90;7.10;;;14.40;64.70;;;;;;4962323;28;20390;-74
2023/10/07 01:05:53;;;;;;;20.95;7.20;;;14.40;65.20;;;;;;4960253;28;20401;-74
2023/10/07 01:08:20;;;;;;;18.70;7.88;;;14.30;66.50;;;;;;4958821;28;20410;-75
2023/10/07 01:10:54;;;;;;;19.75;7.40;;;14.30;66.90;;;;;;4958629;28;20406;-74
2023/10/07 01:13:29;;;;;;;22.85;8.50;;;14.30;67.20;;;;;;4955982;28;20602;-74
2023/10/07 01:15:55;;;;;;;15.88;7.30;;;14.20;69.10;;;;;;4955121;28;20386;-74
2023/10/07 01:18:21;;;;;;;17.85;8.18;;;14.30;68.70;;;;;;4955798;28;20393;-74
2023/10/07 01:23:17;;;;;;;18.75;8.68;;;14.20;69.50;;;;;;4955939;28;20443;-73
2023/10/07 01:25:50;;;;;;;20.77;8.30;;;14.20;69.90;;;;;;4955793;28;20390;-74
2023/10/07 01:28:15;;;;;;;18.48;8.40;;;14.20;70.20;;;;;;4955483;28;20449;-74
2023/10/07 01:31:06;;;;;;;20.20;8.20;;;14.20;70.00;;;;;;4955491;28;20426;-74
2023/10/07 01:33:38;;;;;;;18.50;6.93;;;14.20;71.00;;;;;;4955443;28;20407;-74
2023/10/07 01:36:10;;;;;;;22.13;7.72;;;14.20;71.10;;;;;;4955599;28;20382;-74
2023/10/07 01:38:41;;;;;;;15.30;7.25;;;14.20;70.90;;;;;;4955249;28;20397;-74
2023/10/07 01:41:14;;;;;;;18.05;7.20;;;14.20;71.60;;;;;;4955354;28;20417;-74
2023/10/07 01:43:42;;;;;;;20.90;7.60;;;14.20;72.60;;;;;;4955479;28;20397;-75
2023/10/07 01:46:11;;;;;;;14.95;7.72;;;14.20;72.50;;;;;;4955194;28;20939;-75
2023/10/07 01:48:37;;;;;;;15.03;7.30;;;14.10;73.70;;;;;;4955135;28;20442;-74
2023/10/07 01:51:05;;;;;;;20.75;8.07;;;14.20;73.50;;;;;;4955279;29;20397;-74
2023/10/07 01:53:34;;;;;;;21.23;7.70;;;14.20;73.00;;;;;;4955494;28;20464;-74
2023/10/07 01:56:04;;;;;;;16.25;7.60;;;14.20;73.80;;;;;;4955529;28;20494;-75
2023/10/07 01:58:30;;;;;;;21.50;8.03;;;14.20;74.30;;;;;;4956197;28;20891;-75
2023/10/07 02:00:57;;;;;;;17.52;8.50;;;14.20;74.40;;;;;;4956570;28;20393;-74
2023/10/07 02:03:23;;;;;;;15.30;8.60;;;14.20;73.80;;;;;;4938071;29;20398;-75
2023/10/07 02:05:50;;;;;;;19.67;8.70;;;14.20;74.90;;;;;;4955773;29;20385;-74
2023/10/07 02:08:23;;;;;;;21.15;8.50;;;14.20;74.80;;;;;;4955619;29;20420;-74
2023/10/07 02:10:52;;;;;;;16.98;8.27;;;14.20;75.70;;;;;;4955741;29;20761;-74
2023/10/07 02:13:19;;;;;;;18.47;9.03;;;14.10;77.40;;;;;;4954804;28;20398;-74
2023/10/07 02:15:52;;;;;;;20.63;9.10;;;14.20;76.40;;;;;;4937407;28;20429;-74
2023/10/07 02:18:18;;;;;;;20.20;10.10;;;14.30;75.90;;;;;;4954544;29;20893;-74
2023/10/07 02:20:49;;;;;;;25.70;9.30;;;14.20;77.10;;;;;;4954723;28;20477;-74
2023/10/07 02:23:35;;;;;;;21.52;9.45;;;14.20;76.90;;;;;;4954410;28;20421;-74
2023/10/07 02:26:04;;;;;;;17.00;8.77;;;14.20;78.20;;;;;;4954619;28;20394;-73
2023/10/07 02:28:33;;;;;;;26.05;9.40;;;14.10;79.20;;;;;;4954719;28;20515;-74
2023/10/07 02:31:01;;;;;;;24.13;8.63;;;14.20;78.10;;;;;;4937970;29;20394;-73
2023/10/07 02:33:41;;;;;;;21.48;9.80;;;14.30;77.10;;;;;;4937279;29;20428;-74
2023/10/07 02:36:10;;;;;;;22.25;10.15;;;14.30;76.70;;;;;;4942865;29;20398;-74
2023/10/07 02:38:38;;;;;;;19.90;9.65;;;14.30;76.90;;;;;;4960190;28;20476;-74
2023/10/07 02:41:16;;;;;;;27.90;10.50;;;14.30;77.70;;;;;;4963710;28;20397;-73
2023/10/07 02:43:43;;;;;;;19.85;9.75;;;14.40;77.80;;;;;;4958409;28;20402;-74
2023/10/07 02:46:22;;;;;;;23.17;9.73;;;14.40;77.50;;;;;;4957109;28;20884;-74
2023/10/07 02:48:48;;;;;;;19.90;9.80;;;14.50;77.10;;;;;;4954006;28;20417;-73
2023/10/07 02:51:13;;;;;;;21.05;10.50;;;14.50;76.00;;;;;;4954081;28;20465;-74
2023/10/07 02:53:39;;;;;;;17.40;9.50;;;14.50;77.10;;;;;;4953786;28;20417;-74
2023/10/07 02:56:16;;;;;;;18.30;10.40;;;14.50;76.90;;;;;;4954022;28;20962;-74
2023/10/07 02:59:00;;;;;;;23.08;10.85;;;14.50;77.30;;;;;;4936639;29;20414;-74
2023/10/07 03:01:28;;;;;;;24.10;9.80;;;14.50;76.40;;;;;;4954904;28;20378;-73
2023/10/07 03:03:55;;;;;;;20.15;11.40;;;14.40;77.80;;;;;;4936582;29;20397;-75
2023/10/07 03:06:26;;;;;;;20.77;9.98;;;14.40;78.00;;;;;;4953813;28;20390;-74
2023/10/07 03:09:00;;;;;;;22.52;10.50;;;14.40;78.50;;;;;;4953896;28;20409;-74
2023/10/07 03:11:39;;;;;;;25.10;10.60;;;14.30;80.30;;;;;;4935152;29;20481;-73
2023/10/07 03:14:05;;;;;;;23.70;9.90;;;14.20;83.00;;;;;;4952800;28;20394;-73
2023/10/07 03:16:35;;;;;;;29.80;10.70;;;14.30;82.20;;;;;;4952660;28;20393;-74
2023/10/07 03:21:55;;;;;;;26.13;10.02;;;14.20;82.40;;;;;;4952307;28;20389;-73
2023/10/07 03:27:10;;;;;;;21.27;10.82;;;14.30;81.50;;;;;;4952716;28;20421;-74
2023/10/07 03:29:37;;;;;;;20.42;10.10;;;14.40;80.30;;;;;;4952300;28;20769;-73
2023/10/07 03:32:12;;;;;;;27.15;10.82;;;14.50;79.60;;;;;;4952297;28;20386;-74
2023/10/07 03:34:45;;;;;;;22.80;11.25;;;14.50;80.00;;;;;;4935351;29;20480;-74
2023/10/07 03:39:44;;;;;;;22.33;11.00;;;14.70;77.90;;;;;;4951676;28;20397;-74
2023/10/07 03:42:10;;;;;;;19.70;11.35;;;14.60;77.80;;;;;;4952126;29;20421;-74
2023/10/07 03:44:37;;;;;;;20.42;10.45;;;14.70;77.40;;;;;;4952246;28;20421;-74
2023/10/07 03:47:03;;;;;;;22.85;10.80;;;14.70;77.60;;;;;;4953428;28;20410;-75
2023/10/07 03:49:39;;;;;;;24.98;10.98;;;14.70;76.90;;;;;;4953788;28;20785;-75
2023/10/07 03:52:12;;;;;;;26.50;12.57;;;14.70;77.00;;;;;;4952623;29;20461;-75
2023/10/07 03:54:40;;;;;;;29.17;13.23;;;14.70;76.90;;;;;;4952362;28;20410;-75
2023/10/07 03:57:07;;;;;;;28.30;14.50;;;14.80;76.80;;;;;;4952601;28;20404;-75
2023/10/07 03:59:39;;;;;;;25.00;13.10;;;14.80;75.40;;;;;;4953119;28;20397;-75
2023/10/07 04:04:58;;;;;;;27.83;14.77;;;14.90;76.60;;;;;;4953418;28;20757;-75
2023/10/07 04:07:25;;;;;;;32.83;15.05;;;14.90;76.10;;;;;;4952338;28;20420;-75
2023/10/07 04:09:51;;;;;;;30.80;14.40;;;14.80;76.20;;;;;;4952366;28;20421;-75
2023/10/07 04:12:17;;;;;;;26.08;12.88;;;14.90;76.30;;;;;;4952197;29;20390;-76
2023/10/07 04:14:42;;;;;;;26.90;13.27;;;14.90;75.90;;;;;;4958307;28;20394;-75
2023/10/07 04:17:12;;;;;;;30.67;13.00;;;14.90;75.40;;;;;;4960573;28;20394;-76
2023/10/07 04:19:42;;;;;;;24.70;11.90;;;15.10;74.50;;;;;;4943908;28;20406;-76
2023/10/07 04:22:11;;;;;;;24.38;12.48;;;15.10;74.30;;;;;;4943355;29;20400;-76
2023/10/07 04:24:44;;;;;;;21.73;11.30;;;15.10;74.70;;;;;;4961921;28;20386;-76
2023/10/07 04:27:18;;;;;;;25.08;13.10;;;15.10;74.50;;;;;;4961655;28;20425;-76
2023/10/07 04:29:51;;;;;;;28.00;12.57;;;15.20;73.50;;;;;;4961067;28;20756;-76
2023/10/07 04:32:22;;;;;;;26.15;12.32;;;15.20;73.00;;;;;;4959830;29;20404;-76
2023/10/07 04:35:16;;;;;;;30.40;13.60;;;15.20;72.90;;;;;;4959154;28;20829;-76
2023/10/07 04:37:47;;;;;;;28.00;13.18;;;15.20;74.00;;;;;;4958990;28;20390;-75
2023/10/07 04:45:39;;;;;;;29.20;12.37;;;15.20;73.80;;;;;;4963921;28;20441;-74
2023/10/07 04:51:03;;;;;;;20.58;10.90;;;15.20;74.00;;;;;;4958536;28;20418;-74
2023/10/07 04:53:37;;;;;;;19.50;9.97;;;15.30;72.60;;;;;;4960867;28;20813;-74
2023/10/07 04:56:07;;;;;;;24.95;10.70;;;15.20;74.30;;;;;;4960023;28;20441;-74
2023/10/07 04:58:33;;;;;;;24.23;10.63;;;15.10;75.60;;;;;;4965149;28;20394;-76
2023/10/07 05:01:05;;;;;;;19.33;9.63;;;15.20;75.00;;;;;;4961276;29;20398;-76
2023/10/07 05:03:31;;;;;;;21.05;9.95;;;15.20;75.30;;;;;;4957276;28;20393;-75
2023/10/07 05:05:58;;;;;;;20.08;9.68;;;15.20;75.50;;;;;;4956558;28;20394;-76
2023/10/07 05:08:45;;;;;;;27.08;10.75;;;15.20;76.70;;;;;;4955654;28;20805;-75
2023/10/07 05:11:17;;;;;;;18.17;9.30;;;15.20;75.40;;;;;;4956031;28;20406;-75
2023/10/07 05:13:44;;;;;;;19.03;9.10;;;15.20;75.40;;;;;;4955635;28;20394;-75
2023/10/07 05:16:11;;;;;;;31.35;10.68;;;15.20;76.20;;;;;;4956002;28;20896;-75
2023/10/07 05:18:38;;;;;;;21.40;9.67;;;15.30;74.80;;;;;;4958544;28;20474;-75
2023/10/07 05:21:06;;;;;;;21.63;9.68;;;15.40;73.90;;;;;;4955609;28;20393;-75
2023/10/07 05:23:34;;;;;;;19.37;8.93;;;15.30;74.30;;;;;;4955904;28;20389;-75
2023/10/07 05:26:03;;;;;;;16.85;9.07;;;15.40;73.70;;;;;;4958684;28;20409;-75
2023/10/07 05:28:33;;;;;;;16.08;9.52;;;15.50;72.40;;;;;;4942296;29;20548;-75
2023/10/07 05:31:00;;;;;;;17.90;9.55;;;15.50;72.30;;;;;;4960008;28;20390;-74
2023/10/07 05:33:28;;;;;;;20.52;9.75;;;15.40;72.90;;;;;;4959433;28;20394;-74
2023/10/07 05:36:08;;;;;;;21.97;9.90;;;15.50;72.60;;;;;;4958190;28;20398;-76
2023/10/07 05:38:38;;;;;;;26.87;10.20;;;15.40;72.90;;;;;;4958541;28;20432;-75
2023/10/07 05:41:06;;;;;;;23.40;10.35;;;15.30;74.20;;;;;;4957973;28;20760;-76
2023/10/07 05:43:32;;;;;;;22.83;9.50;;;15.30;75.10;;;;;;4955199;28;20386;-75
2023/10/07 05:45:58;;;;;;;21.65;9.48;;;15.50;72.80;;;;;;4957088;28;20394;-75
2023/10/07 05:48:25;;;;;;;18.80;9.20;;;15.40;73.10;;;;;;4951904;29;20679;-74
2023/10/07 05:50:54;;;;;;;17.88;10.27;;;15.40;73.90;;;;;;4960558;28;20397;-75
2023/10/07 05:53:20;;;;;;;22.52;9.70;;;15.40;74.40;;;;;;4955134;28;20398;-75
2023/10/07 05:55:46;;;;;;;19.40;9.50;;;15.40;74.70;;;;;;4954745;28;20479;-75
2023/10/07 05:58:12;;;;;;;17.02;9.25;;;15.50;73.10;;;;;;4954272;28;20461;-75
2023/10/07 06:00:38;;;;;;;22.20;10.02;;;15.40;73.20;;;;;;4954043;28;20397;-76
2023/10/07 06:03:08;;;;;;;19.50;10.27;;;15.50;72.90;;;;;;4953374;28;20404;-76
2023/10/07 06:05:37;;;;;;;22.30;10.80;;;15.60;71.70;;;;;;4954296;28;20484;-75
2023/10/07 06:08:04;;;;;;;20.48;10.20;;;15.60;71.90;;;;;;4954409;28;20514;-72
2023/10/07 06:10:33;;;;;;;16.13;9.73;;;15.60;72.10;;;;;;4936690;29;20406;-76
2023/10/07 06:13:08;;;;;;;19.17;10.80;;;15.60;72.10;;;;;;4936713;29;20394;-75
2023/10/07 06:15:35;;;;;;;21.10;10.88;;;15.70;70.10;;;;;;4953865;28;20933;-75
2023/10/07 06:18:01;;;;;;;22.50;12.77;;;15.80;70.00;;;;;;4953914;28;20771;-75
2023/10/07 06:20:26;;;;;;;26.20;13.00;;;15.80;69.30;;;;;;4953703;28;20394;-75
2023/10/07 06:22:59;;;;;;;25.00;13.40;;;15.80;69.40;;;;;;4953449;28;20429;-75
2023/10/07 06:25:30;;;;;;;24.60;12.95;;;15.80;68.80;;;;;;4953356;28;20460;-75
2023/10/07 06:27:59;;;;;;;23.40;11.67;;;15.90;69.60;;;;;;4953539;28;20405;-75
2023/10/07 06:30:26;;;;;;;23.27;12.10;;;15.80;70.20;;;;;;4953629;28;20421;-75
2023/10/07 06:32:55;;;;;;;27.17;13.60;;;15.80;69.90;;;;;;4935970;28;20555;-75
2023/10/07 06:35:25;;;;;;;26.10;13.70;;;15.90;69.50;;;;;;4936602;29;20393;-75
2023/10/07 06:37:57;;;;;;;29.70;14.10;;;15.90;68.60;;;;;;4936182;28;20394;-75
2023/10/07 06:40:29;;;;;;;22.83;14.73;;;16.00;67.40;;;;;;4953309;29;20489;-75
2023/10/07 06:42:58;;;;;;;28.30;15.57;;;16.00;68.10;;;;;;4954744;28;20473;-75
2023/10/07 06:45:36;;;;;;;29.73;13.07;;;16.00;67.60;;;;;;4953435;28;20463;-75
2023/10/07 06:48:05;;;;;;;25.13;12.10;;;16.10;67.00;;;;;;4936139;29;20421;-75
2023/10/07 06:50:31;;;;;;;24.85;9.90;;;16.00;68.30;;;;;;4953520;28;20386;-74
2023/10/07 06:52:57;;;;;;;26.23;9.63;;;16.10;68.10;;;;;;4953537;28;20441;-76
2023/10/07 06:55:22;;;;;;;17.98;9.55;;;16.10;67.80;;;;;;4935562;29;20893;-76
2023/10/07 06:57:56;;;;;;;18.10;8.73;;;16.20;66.30;;;;;;4952882;28;20448;-76
2023/10/07 07:00:27;;;;;;;17.33;8.77;;;16.20;67.00;;;;;;4935644;29;20402;-76
2023/10/07 07:02:59;;;;;;;18.08;8.20;;;16.50;63.30;;;;;;4937819;28;20450;-76
2023/10/07 07:05:26;;;;;;;21.33;8.40;;;16.70;61.40;;;;;;4959777;28;20406;-74
2023/10/07 07:07:52;;;;;;;19.00;8.18;;;16.80;59.10;;;;;;4970494;28;20416;-75
2023/10/07 07:10:27;;;;;;;16.67;7.30;;;16.80;58.40;;;;;;4960455;28;20408;-74
2023/10/07 07:12:58;;;;;;;15.55;7.80;;;17.00;59.00;;;;;;4971006;28;20392;-74
2023/10/07 07:15:29;;;;;;;16.58;7.50;;;17.20;56.60;;;;;;4958390;28;20761;-74
2023/10/07 07:21:48;;;;;;;13.85;7.63;;;17.40;53.90;;;;;;4952954;28;20390;-74
2023/10/07 07:23:49;;;;;;;15.97;8.07;;;17.40;54.10;;;;;;4940454;28;20398;-76
2023/10/07 07:26:18;;;;;;;18.77;7.72;;;17.30;54.60;;;;;;4955733;28;20388;-75
2023/10/07 07:28:44;;;;;;;14.02;7.10;;;17.30;54.60;;;;;;4972526;28;20419;-74
2023/10/07 07:31:11;;;;;;;17.05;7.28;;;17.30;55.00;;;;;;4971646;28;20386;-74
2023/10/07 07:33:38;;;;;;;15.52;7.10;;;17.20;55.60;;;;;;4972548;28;20395;-75
2023/10/07 07:36:48;;;;;;;17.58;7.97;;;17.30;55.40;;;;;;4972427;28;20380;-76
2023/10/07 07:38:54;;;;;;;17.85;6.80;;;17.40;54.60;;;;;;4962846;28;20388;-76
2023/10/07 07:41:37;;;;;;;18.50;7.50;;;17.50;53.90;;;;;;4973575;28;20384;-73
2023/10/07 07:44:10;;;;;;;15.07;7.70;;;17.40;54.00;;;;;;4972145;28;20455;-75
2023/10/07 07:46:56;;;;;;;14.60;6.50;;;17.30;54.50;;;;;;4955056;28;20399;-74
2023/10/07 07:49:27;;;;;;;16.40;6.10;;;17.40;54.00;;;;;;4952513;28;20382;-75
2023/10/07 07:51:53;;;;;;;21.25;7.50;;;17.40;53.90;;;;;;4952801;28;20750;-73
2023/10/07 07:54:19;;;;;;;16.37;6.90;;;17.30;55.00;;;;;;4957756;28;20460;-73
2023/10/07 07:56:46;;;;;;;14.35;6.53;;;17.30;54.80;;;;;;4954895;29;20393;-75
2023/10/07 07:59:15;;;;;;;12.27;6.90;;;17.30;55.80;;;;;;4966361;28;20484;-74
2023/10/07 08:01:45;;;;;;;13.50;6.93;;;17.30;55.30;;;;;;4966956;28;20408;-74
2023/10/07 08:04:17;;;;;;;16.27;6.70;;;17.40;55.40;;;;;;4959819;28;20398;-74
2023/10/07 08:06:45;;;;;;;15.00;6.78;;;17.50;54.10;;;;;;4946189;28;20422;-73
2023/10/07 08:09:11;;;;;;;14.65;6.40;;;17.70;53.40;;;;;;4991154;28;20399;-74
2023/10/07 08:11:37;;;;;;;14.18;6.70;;;17.70;52.80;;;;;;4989374;28;20396;-72
2023/10/07 08:14:09;;;;;;;17.02;6.60;;;17.80;52.10;;;;;;4991681;28;20387;-73
2023/10/07 08:16:46;;;;;;;14.18;6.88;;;17.80;52.00;;;;;;4976216;28;20396;-74
2023/10/07 08:19:20;;;;;;;18.45;7.20;;;17.80;52.10;;;;;;4992910;28;20439;-72
2023/10/07 08:21:47;;;;;;;19.92;7.10;;;17.90;51.30;;;;;;4974722;28;20395;-71
2023/10/07 08:24:13;;;;;;;19.23;7.50;;;17.90;51.10;;;;;;4991514;28;20427;-74
2023/10/07 08:26:48;;;;;;;14.98;7.95;;;17.90;51.90;;;;;;4994664;28;20411;-72
2023/10/07 08:29:25;;;;;;;12.82;6.88;;;17.90;51.00;;;;;;4992486;28;20489;-72
2023/10/07 08:31:50;;;;;;;18.35;7.40;;;17.90;51.10;;;;;;4993040;28;20392;-73
2023/10/07 08:34:17;;;;;;;18.58;7.25;;;17.80;51.60;;;;;;4993401;28;20452;-72
2023/10/07 08:36:43;;;;;;;17.13;6.60;;;17.80;52.50;;;;;;4991910;28;20403;-72
2023/10/07 08:39:09;;;;;;;13.33;6.70;;;17.90;51.40;;;;;;4985985;28;20394;-72
2023/10/07 08:41:47;;;;;;;18.65;6.50;;;17.90;51.40;;;;;;4976082;28;20431;-72
2023/10/07 08:44:14;;;;;;;14.13;6.10;;;18.10;50.90;;;;;;4977216;28;20416;-74
2023/10/07 08:46:53;;;;;;;13.70;7.00;;;18.20;49.50;;;;;;4991496;28;20419;-72
2023/10/07 08:49:26;;;;;;;19.38;7.60;;;18.40;48.80;;;;;;4979400;28;20401;-71
2023/10/07 08:51:53;;;;;;;13.98;6.00;;;18.50;48.40;;;;;;4972705;29;20389;-72
2023/10/07 08:54:26;;;;;;;11.80;6.20;;;18.60;47.10;;;;;;4974352;28;20474;-71
2023/10/07 08:56:57;;;;;;;13.68;5.85;;;18.50;47.50;;;;;;4969381;28;20445;-70
2023/10/07 08:59:25;;;;;;;16.80;6.35;;;18.60;47.50;;;;;;4970918;28;20405;-72
2023/10/07 09:02:00;;;;;;;15.15;6.40;;;18.60;48.40;;;;;;4951068;28;20417;-72
2023/10/07 09:04:31;;;;;;;17.10;6.40;;;18.70;46.60;;;;;;4961841;29;20934;-71
2023/10/07 09:06:58;;;;;;;17.58;6.57;;;18.70;46.60;;;;;;4963332;28;20408;-77
2023/10/07 09:09:38;;;;;;;18.67;7.43;;;18.60;47.00;;;;;;4996731;23;20460;-74
2023/10/07 09:12:10;;;;;;;17.95;6.60;;;18.50;47.60;;;;;;4998399;28;20395;-72
2023/10/07 09:14:40;;;;;;;19.60;7.00;;;18.50;48.20;;;;;;4998460;28;20478;-74
2023/10/07 09:17:09;;;;;;;13.48;6.53;;;18.50;48.50;;;;;;5006534;28;20806;-74
2023/10/07 09:19:36;;;;;;;17.38;7.05;;;18.70;48.10;;;;;;5004948;28;20395;-74
2023/10/07 09:22:10;;;;;;;14.82;6.80;;;18.80;46.60;;;;;;4998449;28;20473;-73
2023/10/07 09:24:42;;;;;;;16.67;7.10;;;18.90;46.00;;;;;;4998443;28;20398;-74
2023/10/07 09:27:12;;;;;;;14.27;6.53;;;19.00;45.30;;;;;;4987708;28;20412;-72
2023/10/07 09:29:39;;;;;;;14.07;7.97;;;19.00;45.30;;;;;;4995009;28;20408;-74
2023/10/07 09:32:16;;;;;;;18.07;7.60;;;19.00;45.30;;;;;;4981959;28;20395;-74
2023/10/07 09:34:42;;;;;;;18.20;7.18;;;18.90;45.60;;;;;;4988824;28;20407;-74
2023/10/07 09:37:17;;;;;;;21.33;7.40;;;18.90;45.70;;;;;;4969875;28;20448;-74
2023/10/07 09:39:53;;;;;;;14.10;7.07;;;18.90;45.90;;;;;;4997400;28;20453;-73
2023/10/07 09:42:26;;;;;;;14.77;6.75;;;18.90;45.90;;;;;;4986353;28;20404;-72
2023/10/07 09:47:37;;;;;;;17.23;7.87;;;19.10;45.80;;;;;;4988817;28;20442;-74
2023/10/07 09:52:56;;;;;;;15.25;6.35;;;19.30;44.20;;;;;;5004080;28;20375;-75
2023/10/07 09:55:40;;;;;;;13.57;5.72;;;19.30;44.20;;;;;;5000497;28;20393;-74
2023/10/07 09:58:36;;;;;;;15.13;6.90;;;19.30;43.50;;;;;;4997533;28;20389;-74
2023/10/07 10:01:38;;;;;;;14.20;5.97;;;19.30;43.50;;;;;;4995998;28;20395;-74
2023/10/07 10:04:28;;;;;;;16.13;7.00;;;19.30;44.20;;;;;;4984765;28;20917;-77
2023/10/07 10:07:29;;;;;;;14.93;6.38;;;19.40;43.10;;;;;;4998885;28;20885;-76
2023/10/07 10:10:12;;;;;;;11.75;5.80;;;19.50;43.10;;;;;;5004818;28;20437;-77
2023/10/07 10:12:53;;;;;;;15.23;5.80;;;19.60;42.50;;;;;;5003443;28;20416;-74
2023/10/07 10:17:53;;;;;;;12.33;5.60;;;19.80;42.10;;;;;;4979996;28;20431;-72
2023/10/07 10:20:21;;;;;;;13.50;5.90;;;19.80;41.30;;;;;;4987119;28;20429;-72
2023/10/07 10:23:00;;;;;;;11.98;5.35;;;19.80;40.70;;;;;;4993127;28;20415;-74
2023/10/07 10:25:48;;;;;;;13.30;5.88;;;19.90;41.10;;;;;;4996314;28;20412;-71
2023/10/07 10:28:31;;;;;;;13.82;5.60;;;19.90;40.90;;;;;;4972093;28;20510;-73
2023/10/07 10:30:56;;;;;;;11.07;5.30;;;20.00;40.50;;;;;;4994790;28;20429;-73
2023/10/07 10:33:28;;;;;;;11.63;5.07;;;20.10;40.30;;;;;;4977094;28;20390;-72
2023/10/07 10:36:00;;;;;;;11.30;5.25;;;20.20;39.50;;;;;;4994374;28;20476;-71
2023/10/07 10:38:38;;;;;;;12.77;5.47;;;20.20;39.30;;;;;;4996055;28;20504;-73
2023/10/07 10:41:04;;;;;;;12.48;5.22;;;20.30;39.10;;;;;;4980609;28;20394;-73
2023/10/07 10:43:33;;;;;;;16.63;5.63;;;20.40;38.50;;;;;;4990787;28;20407;-73
2023/10/07 10:46:06;;;;;;;17.55;5.07;;;20.40;37.90;;;;;;5003050;28;20454;-72
2023/10/07 10:48:37;;;;;;;13.90;5.40;;;20.30;38.80;;;;;;5004425;28;20411;-71
2023/10/07 10:51:05;;;;;;;12.20;4.90;;;20.30;38.30;;;;;;4998433;28;20401;-72
2023/10/07 10:53:36;;;;;;;14.30;5.70;;;20.40;38.10;;;;;;4995899;28;20393;-73
2023/10/07 10:56:02;;;;;;;13.70;5.00;;;20.60;38.10;;;;;;4975840;28;20392;-72
2023/10/07 10:58:29;;;;;;;10.90;5.22;;;20.60;37.50;;;;;;4975813;28;20396;-71
2023/10/07 11:00:55;;;;;;;13.20;5.30;;;20.60;37.20;;;;;;4977214;28;20409;-73
2023/10/07 11:03:21;;;;;;;13.55;4.80;;;20.70;37.00;;;;;;4982995;28;20401;-72
2023/10/07 11:06:00;;;;;;;12.77;4.25;;;20.70;36.90;;;;;;4976491;28;20400;-74
2023/10/07 11:08:26;;;;;;;14.07;4.60;;;20.80;36.60;;;;;;4988796;28;20443;-73
2023/10/07 11:10:54;;;;;;;12.80;4.85;;;20.70;36.60;;;;;;4992736;28;20778;-74
2023/10/07 11:13:20;;;;;;;12.32;4.80;;;20.80;36.30;;;;;;4994209;28;20409;-73
2023/10/07 11:16:04;;;;;;;16.02;4.95;;;20.90;36.40;;;;;;4995617;28;20428;-74
2023/10/07 11:18:33;;;;;;;8.07;3.90;;;21.00;35.20;;;;;;4997341;28;20383;-73
2023/10/07 11:21:02;;;;;;;10.37;4.47;;;21.00;34.90;;;;;;4996194;28;20486;-73
2023/10/07 11:23:27;;;;;;;14.02;4.50;;;21.10;34.70;;;;;;4995525;28;20803;-73
2023/10/07 11:25:55;;;;;;;16.00;4.50;;;21.40;34.30;;;;;;4994990;28;20395;-74
2023/10/07 11:28:22;;;;;;;10.35;4.50;;;21.60;33.70;;;;;;4995307;28;20406;-73
2023/10/07 11:30:49;;;;;;;11.82;4.13;;;21.70;32.80;;;;;;4994986;28;20529;-72
2023/10/07 11:33:16;;;;;;;15.35;4.32;;;22.00;32.20;;;;;;4993994;28;20444;-74
2023/10/07 11:35:42;;;;;;;10.43;4.30;;;22.30;31.40;;;;;;4994539;28;20387;-74
2023/10/07 11:38:11;;;;;;;12.25;4.60;;;22.30;31.00;;;;;;4995412;28;20406;-73
2023/10/07 11:40:37;;;;;;;8.40;4.00;;;22.20;30.80;;;;;;4979395;28;20398;-73
2023/10/07 11:43:08;;;;;;;12.00;4.80;;;22.10;31.00;;;;;;4997276;28;20875;-73
2023/10/07 11:45:36;;;;;;;11.60;4.70;;;22.00;30.60;;;;;;4997954;28;20386;-73
2023/10/07 11:48:04;;;;;;;15.40;4.80;;;22.00;30.50;;;;;;4999703;28;20434;-74
2023/10/07 11:50:35;;;;;;;9.80;4.22;;;22.20;30.30;;;;;;4994934;28;20452;-72
2023/10/07 11:53:01;;;;;;;10.17;4.57;;;22.40;29.30;;;;;;4993518;28;20432;-74
2023/10/07 11:55:27;;;;;;;11.07;4.30;;;22.60;28.30;;;;;;4994487;28;20585;-74
2023/10/07 11:57:53;;;;;;;10.95;4.70;;;22.70;28.30;;;;;;4993445;28;20409;-72
2023/10/07 12:00:28;;;;;;;10.27;4.30;;;23.00;27.60;;;;;;4994917;28;20398;-73
2023/10/07 12:02:57;;;;;;;10.27;4.70;;;23.00;27.30;;;;;;4997391;28;20390;-73
2023/10/07 12:05:27;;;;;;;9.05;4.25;;;23.20;26.80;;;;;;4996948;28;20394;-74
2023/10/07 12:07:59;;;;;;;10.95;4.40;;;23.20;26.90;;;;;;4997200;28;20418;-74
2023/10/07 12:10:25;;;;;;;9.00;4.37;;;23.10;26.70;;;;;;4996887;28;20429;-75
2023/10/07 12:12:52;;;;;;;9.20;4.40;;;23.00;26.70;;;;;;4996889;28;20386;-72
2023/10/07 12:15:18;;;;;;;9.48;4.13;;;22.80;27.50;;;;;;4997621;28;20394;-72
2023/10/07 12:17:49;;;;;;;6.20;4.00;;;22.70;27.40;;;;;;4997375;28;20394;-72
2023/10/07 12:20:15;;;;;;;11.98;4.50;;;22.60;27.50;;;;;;4997205;28;20390;-73
2023/10/07 12:22:42;;;;;;;11.55;4.43;;;22.40;27.90;;;;;;4996877;28;20390;-72
2023/10/07 12:25:15;;;;;;;12.03;4.83;;;22.20;28.50;;;;;;4996992;28;20397;-72
2023/10/07 12:27:47;;;;;;;10.68;4.60;;;22.10;28.80;;;;;;4996603;28;20416;-74
2023/10/07 12:30:17;;;;;;;11.82;4.30;;;22.10;29.00;;;;;;4996523;28;20383;-73
2023/10/07 12:32:43;;;;;;;11.75;4.80;;;22.00;29.10;;;;;;4978144;28;20402;-73
2023/10/07 12:35:10;;;;;;;9.13;3.80;;;22.20;29.20;;;;;;4996292;28;20448;-73
2023/10/07 12:37:39;;;;;;;11.13;4.40;;;22.30;28.40;;;;;;4996217;28;20421;-71
2023/10/07 12:40:10;;;;;;;7.30;3.83;;;22.30;28.20;;;;;;4996092;28;20814;-73
2023/10/07 12:42:39;;;;;;;10.63;4.22;;;22.30;28.00;;;;;;4996399;28;20390;-72
2023/10/07 12:45:06;;;;;;;11.10;4.57;;;22.30;27.90;;;;;;4996850;28;20386;-72
2023/10/07 12:47:33;;;;;;;7.45;4.70;;;22.40;28.30;;;;;;4995953;28;20440;-71
2023/10/07 12:49:58;;;;;;;7.93;4.10;;;22.50;27.80;;;;;;4998487;28;20490;-74
2023/10/07 12:52:26;;;;;;;11.73;4.43;;;22.60;27.00;;;;;;4980172;28;20418;-72
2023/10/07 12:54:52;;;;;;;10.27;4.13;;;22.60;26.70;;;;;;4997099;28;20468;-77
2023/10/07 12:57:17;;;;;;;12.50;4.50;;;22.50;27.00;;;;;;4997444;28;20468;-74
2023/10/07 12:59:44;;;;;;;9.45;4.10;;;22.40;27.60;;;;;;4979298;28;20445;-73
2023/10/07 13:02:17;;;;;;;11.10;4.50;;;22.40;27.80;;;;;;4996358;28;20741;-72
2023/10/07 13:04:44;;;;;;;13.35;4.85;;;22.30;27.80;;;;;;4978650;28;20387;-73
2023/10/07 13:07:10;;;;;;;10.82;4.35;;;22.30;28.50;;;;;;4995978;28;20414;-71
2023/10/07 13:09:40;;;;;;;10.13;4.78;;;22.40;27.80;;;;;;4996264;28;20401;-71
2023/10/07 13:12:13;;;;;;;11.57;4.83;;;22.50;28.10;;;;;;4978932;28;20390;-74
2023/10/07 13:14:40;;;;;;;10.27;4.28;;;22.50;28.60;;;;;;4996654;28;20398;-71
2023/10/07 13:17:07;;;;;;;11.68;4.40;;;22.40;28.00;;;;;;4996485;28;20394;-74
2023/10/07 13:19:36;;;;;;;8.02;4.20;;;22.40;28.20;;;;;;4996062;28;20841;-73
2023/10/07 13:22:05;;;;;;;7.70;4.00;;;22.40;28.40;;;;;;4995577;28;20397;-73
2023/10/07 13:24:32;;;;;;;8.77;3.63;;;22.50;27.70;;;;;;4995382;28;20391;-72
2023/10/07 13:26:57;;;;;;;9.95;3.90;;;22.60;26.40;;;;;;4995933;28;20449;-73
2023/10/07 13:29:23;;;;;;;9.55;4.30;;;22.50;26.60;;;;;;4995520;28;20398;-73